Time;durP1;ratioP1;P1;durP2;ratioP2;P2;SDS_P1;SDS_P2;PMS_P1;PMS_P2;Temp;Humidity;BMP_temperature;BMP_pressure;BME280_temperature;BME280_humidity;BME280_pressure;Samples;Min_cycle;Max_cycle;Signal;HPM_P1;HPM_P2
2023/05/24 00:00:18;;;;;;;16.02;5.30;;;11.60;99.90;;;;;;4944289;28;20129;-81
2023/05/24 00:02:44;;;;;;;18.83;5.90;;;11.60;99.90;;;;;;4945313;28;20172;-80
2023/05/24 00:05:10;;;;;;;24.73;4.93;;;11.50;99.90;;;;;;4958613;28;20182;-81
2023/05/24 00:07:37;;;;;;;19.75;5.47;;;11.50;99.90;;;;;;4959184;28;20058;-80
2023/05/24 00:10:04;;;;;;;23.13;5.97;;;11.60;99.90;;;;;;4962189;28;20133;-81
2023/05/24 00:12:30;;;;;;;15.43;4.47;;;11.60;99.90;;;;;;4955970;28;20106;-80
2023/05/24 00:14:56;;;;;;;19.45;4.35;;;11.60;99.90;;;;;;4951026;28;20046;-80
2023/05/24 00:17:21;;;;;;;16.05;5.78;;;11.70;99.90;;;;;;4965238;28;20096;-80
2023/05/24 00:19:47;;;;;;;16.95;4.72;;;11.70;99.90;;;;;;4951045;28;20039;-81
2023/05/24 00:22:13;;;;;;;26.52;5.20;;;11.70;99.90;;;;;;4933213;28;20121;-81
2023/05/24 00:24:39;;;;;;;23.02;5.40;;;11.70;99.90;;;;;;4928568;28;20078;-81
2023/05/24 00:27:05;;;;;;;21.63;4.93;;;11.70;99.90;;;;;;4953151;28;20066;-82
2023/05/24 00:29:31;;;;;;;19.90;5.13;;;11.60;99.90;;;;;;4981348;28;20043;-82
2023/05/24 00:31:58;;;;;;;18.33;4.57;;;11.60;99.90;;;;;;4948507;28;20474;-82
2023/05/24 00:34:23;;;;;;;23.08;5.20;;;11.50;99.90;;;;;;4961634;28;20407;-81
2023/05/24 00:36:49;;;;;;;20.38;5.28;;;11.60;99.90;;;;;;4984393;28;20022;-81
2023/05/24 00:39:15;;;;;;;23.98;5.10;;;11.40;99.90;;;;;;4955011;28;20400;-81
2023/05/24 00:41:41;;;;;;;20.92;5.00;;;11.60;99.90;;;;;;4967302;28;20070;-80
2023/05/24 00:44:09;;;;;;;20.92;5.38;;;11.50;99.90;;;;;;4956095;28;20060;-81
2023/05/24 00:46:36;;;;;;;22.90;6.10;;;11.50;99.90;;;;;;4982993;28;20049;-82
2023/05/24 00:49:02;;;;;;;19.85;5.10;;;11.50;99.90;;;;;;4974013;28;20100;-81
2023/05/24 00:51:29;;;;;;;24.80;5.38;;;11.30;99.90;;;;;;4978781;28;20096;-78
2023/05/24 00:53:55;;;;;;;20.35;4.75;;;11.40;99.90;;;;;;4980783;28;20063;-80
2023/05/24 00:56:21;;;;;;;19.88;5.20;;;11.30;99.90;;;;;;4968733;28;20092;-80
2023/05/24 00:58:49;;;;;;;16.42;4.80;;;11.30;99.90;;;;;;4934337;29;20035;-80
2023/05/24 01:01:15;;;;;;;20.70;5.65;;;11.30;99.90;;;;;;4986062;28;20188;-82
2023/05/24 01:03:40;;;;;;;19.17;5.18;;;11.30;99.90;;;;;;4947861;28;20039;-81
2023/05/24 01:06:08;;;;;;;20.85;5.53;;;11.30;99.90;;;;;;4967631;28;20042;-78
2023/05/24 01:08:44;;;;;;;22.27;4.80;;;11.30;99.90;;;;;;5006966;28;20366;-79
2023/05/24 01:11:40;;;;;;;18.88;5.32;;;11.40;99.90;;;;;;4998835;28;20038;-78
2023/05/24 01:14:35;;;;;;;22.05;5.05;;;11.50;99.90;;;;;;5006250;28;20043;-82
2023/05/24 01:17:23;;;;;;;16.15;4.28;;;11.50;99.90;;;;;;4984776;28;20128;-80
2023/05/24 01:19:48;;;;;;;18.92;6.07;;;11.60;99.90;;;;;;4986069;28;21706;-79
2023/05/24 01:22:24;;;;;;;18.38;4.43;;;11.60;99.90;;;;;;4966735;28;20050;-79
2023/05/24 01:25:08;;;;;;;18.23;4.53;;;11.70;99.90;;;;;;4963971;28;20057;-79
2023/05/24 01:27:36;;;;;;;16.23;4.53;;;11.70;99.90;;;;;;5026407;28;20057;-80
2023/05/24 01:30:03;;;;;;;14.80;4.35;;;11.80;99.90;;;;;;4962714;28;20167;-79
2023/05/24 01:32:29;;;;;;;18.63;4.80;;;11.90;99.90;;;;;;4973996;28;20395;-81
2023/05/24 01:34:55;;;;;;;20.90;5.63;;;11.90;99.90;;;;;;4977145;28;20035;-79
2023/05/24 01:37:21;;;;;;;15.10;4.38;;;11.90;99.90;;;;;;4993115;28;20039;-80
2023/05/24 01:39:47;;;;;;;15.38;4.57;;;11.90;99.90;;;;;;4989772;28;20139;-80
2023/05/24 01:42:29;;;;;;;19.38;5.18;;;11.90;99.90;;;;;;4986631;28;21048;-79
2023/05/24 01:45:24;;;;;;;19.23;4.70;;;11.90;99.90;;;;;;4979900;28;20153;-79
2023/05/24 01:48:30;;;;;;;17.65;4.88;;;12.00;99.90;;;;;;4980535;28;20103;-79
2023/05/24 01:50:58;;;;;;;17.05;5.07;;;12.00;99.90;;;;;;4980334;28;20513;-79
2023/05/24 01:53:30;;;;;;;17.10;5.97;;;12.20;99.90;;;;;;4977177;28;20099;-79
2023/05/24 01:55:58;;;;;;;16.58;4.40;;;12.10;99.90;;;;;;4982565;28;20597;-81
2023/05/24 01:58:25;;;;;;;19.48;4.40;;;12.20;99.90;;;;;;4966754;28;20561;-80
2023/05/24 02:00:51;;;;;;;19.52;5.07;;;12.20;99.90;;;;;;4980538;28;20056;-81
2023/05/24 02:03:18;;;;;;;16.05;4.43;;;12.20;99.90;;;;;;4950723;28;20038;-81
2023/05/24 02:05:47;;;;;;;19.88;4.65;;;12.10;99.90;;;;;;4990296;28;20387;-82
2023/05/24 02:08:13;;;;;;;14.23;4.57;;;12.20;99.90;;;;;;4963046;28;20055;-81
2023/05/24 02:10:39;;;;;;;20.00;5.10;;;12.10;99.90;;;;;;4943401;28;20050;-82
2023/05/24 02:13:06;;;;;;;16.67;4.82;;;12.10;99.90;;;;;;4961014;28;20043;-81
2023/05/24 02:15:34;;;;;;;19.73;5.20;;;12.20;99.90;;;;;;4961718;28;20120;-82
2023/05/24 02:18:00;;;;;;;17.58;4.50;;;12.30;99.90;;;;;;4946989;28;20566;-81
2023/05/24 02:20:35;;;;;;;16.80;5.00;;;12.30;99.90;;;;;;4960279;28;20865;-82
2023/05/24 02:23:04;;;;;;;17.25;5.32;;;12.40;99.90;;;;;;4942011;28;20487;-81
2023/05/24 02:25:31;;;;;;;17.83;5.30;;;12.40;99.90;;;;;;4932422;28;20039;-81
2023/05/24 02:27:58;;;;;;;22.27;5.10;;;12.50;99.90;;;;;;4961709;28;20051;-82
2023/05/24 02:30:23;;;;;;;15.07;4.57;;;12.60;99.90;;;;;;4946348;28;20187;-81
2023/05/24 02:32:49;;;;;;;14.35;4.38;;;12.60;99.90;;;;;;4946857;28;20081;-82
2023/05/24 02:35:15;;;;;;;16.10;4.00;;;12.70;99.90;;;;;;4964058;28;20054;-82
2023/05/24 02:37:41;;;;;;;17.38;4.20;;;12.70;99.90;;;;;;4931574;28;20579;-81
2023/05/24 02:40:07;;;;;;;19.23;4.55;;;12.60;99.90;;;;;;4941160;28;20407;-81
2023/05/24 02:42:33;;;;;;;15.00;3.95;;;12.80;99.90;;;;;;4960941;28;20111;-82
2023/05/24 02:44:59;;;;;;;15.98;4.03;;;12.80;99.90;;;;;;4941535;28;20524;-81
2023/05/24 02:47:27;;;;;;;19.92;4.70;;;12.70;99.90;;;;;;4958649;28;20079;-82
2023/05/24 02:49:54;;;;;;;19.83;4.38;;;12.60;99.90;;;;;;4907726;28;20043;-82
2023/05/24 02:52:22;;;;;;;15.07;4.05;;;12.60;99.90;;;;;;4951382;28;20121;-81
2023/05/24 02:54:49;;;;;;;17.48;3.88;;;12.60;99.90;;;;;;4951199;28;20389;-81
2023/05/24 02:57:15;;;;;;;17.63;4.72;;;12.50;99.90;;;;;;4962888;28;20126;-81
2023/05/24 02:59:42;;;;;;;14.82;4.15;;;12.50;99.90;;;;;;4967451;28;20035;-81
2023/05/24 03:02:08;;;;;;;18.25;4.72;;;12.50;99.90;;;;;;4964246;28;20035;-82
2023/05/24 03:04:33;;;;;;;19.90;4.25;;;12.80;99.90;;;;;;4949829;28;20565;-83
2023/05/24 03:06:59;;;;;;;18.02;4.63;;;12.70;99.90;;;;;;4955750;28;20447;-82
2023/05/24 03:09:26;;;;;;;16.42;3.92;;;12.60;99.90;;;;;;4977155;28;21969;-81
2023/05/24 03:11:53;;;;;;;16.33;4.88;;;12.70;99.90;;;;;;4934584;28;20043;-80
2023/05/24 03:14:21;;;;;;;11.02;3.97;;;12.70;99.90;;;;;;4952010;28;20117;-81
2023/05/24 03:16:47;;;;;;;16.92;4.70;;;12.70;99.90;;;;;;4971102;28;20045;-81
2023/05/24 03:19:15;;;;;;;19.00;3.88;;;12.70;99.90;;;;;;4937747;28;20030;-80
2023/05/24 03:21:41;;;;;;;13.80;5.13;;;12.60;99.90;;;;;;4969704;28;20051;-80
2023/05/24 03:24:08;;;;;;;17.58;4.03;;;12.80;99.90;;;;;;4967526;28;20044;-80
2023/05/24 03:26:34;;;;;;;15.60;4.88;;;12.60;99.90;;;;;;5039190;28;20043;-81
2023/05/24 03:29:00;;;;;;;18.80;5.45;;;12.70;99.90;;;;;;4957537;28;20035;-80
2023/05/24 03:31:25;;;;;;;17.15;4.80;;;12.80;99.90;;;;;;4945444;28;20035;-80
2023/05/24 03:33:51;;;;;;;18.08;5.13;;;12.80;99.90;;;;;;4943552;28;20051;-81
2023/05/24 03:36:17;;;;;;;16.33;4.97;;;12.80;99.90;;;;;;5032236;28;20046;-80
2023/05/24 03:38:43;;;;;;;16.30;4.25;;;13.00;99.90;;;;;;4957234;28;20445;-80
2023/05/24 03:41:09;;;;;;;15.18;3.80;;;12.90;99.90;;;;;;4948472;28;20391;-80
2023/05/24 03:43:35;;;;;;;14.98;4.28;;;12.90;99.90;;;;;;4939447;28;20053;-79
2023/05/24 03:46:01;;;;;;;16.48;4.78;;;13.00;99.90;;;;;;4984799;28;20057;-79
2023/05/24 03:48:27;;;;;;;14.48;3.80;;;13.00;99.90;;;;;;4940994;28;20039;-79
2023/05/24 03:50:52;;;;;;;20.13;4.00;;;13.10;99.90;;;;;;4931332;28;20042;-79
2023/05/24 03:53:20;;;;;;;18.00;3.97;;;13.00;99.90;;;;;;4964402;28;20701;-79
2023/05/24 03:55:45;;;;;;;16.77;4.30;;;13.10;99.90;;;;;;4933223;28;20058;-79
2023/05/24 03:58:12;;;;;;;18.10;4.03;;;13.20;99.90;;;;;;4964037;28;20051;-79
2023/05/24 04:00:38;;;;;;;17.25;3.90;;;13.20;99.90;;;;;;4968763;28;20051;-80
2023/05/24 04:03:05;;;;;;;17.40;4.50;;;13.10;99.90;;;;;;4945430;28;20058;-79
2023/05/24 04:05:32;;;;;;;16.40;3.63;;;13.10;99.90;;;;;;5027364;28;20120;-80
2023/05/24 04:07:58;;;;;;;15.65;3.97;;;13.10;99.90;;;;;;4947249;28;20065;-80
2023/05/24 04:10:24;;;;;;;15.18;4.32;;;13.30;99.90;;;;;;4950222;28;20386;-80
2023/05/24 04:12:49;;;;;;;13.13;4.10;;;13.20;99.90;;;;;;4961386;28;20075;-79
2023/05/24 04:15:15;;;;;;;15.18;4.35;;;13.40;99.90;;;;;;4960304;28;20042;-80
2023/05/24 04:17:45;;;;;;;19.08;4.95;;;13.30;99.90;;;;;;4965428;28;20035;-80
2023/05/24 04:20:11;;;;;;;18.95;4.13;;;13.50;99.90;;;;;;4939525;28;20568;-80
2023/05/24 04:22:38;;;;;;;17.23;4.50;;;13.40;99.90;;;;;;4954849;28;20035;-80
2023/05/24 04:25:05;;;;;;;15.57;4.38;;;13.50;99.90;;;;;;4950830;28;20077;-80
2023/05/24 04:27:31;;;;;;;15.90;4.90;;;13.50;99.90;;;;;;4963020;28;20054;-81
2023/05/24 04:29:57;;;;;;;16.88;5.15;;;13.50;99.90;;;;;;4960648;28;20135;-81
2023/05/24 04:32:22;;;;;;;15.75;4.68;;;13.70;99.90;;;;;;4943332;28;20143;-82
2023/05/24 04:34:49;;;;;;;17.27;4.18;;;13.60;99.90;;;;;;4933505;28;20047;-81
2023/05/24 04:37:17;;;;;;;24.85;4.63;;;13.60;99.90;;;;;;4951389;28;20031;-82
2023/05/24 04:39:44;;;;;;;20.80;4.18;;;13.50;99.90;;;;;;4963263;28;20473;-82
2023/05/24 04:42:11;;;;;;;9.45;3.85;;;13.70;99.90;;;;;;4978832;28;20038;-84
2023/05/24 04:44:39;;;;;;;19.70;4.50;;;13.50;99.90;;;;;;4951141;28;20620;-81
2023/05/24 04:47:05;;;;;;;20.42;5.68;;;13.50;99.90;;;;;;4980177;28;20047;-82
2023/05/24 04:49:31;;;;;;;15.48;4.30;;;13.60;99.90;;;;;;4931377;28;20047;-81
2023/05/24 04:51:57;;;;;;;13.85;4.75;;;13.60;99.90;;;;;;4964162;28;20031;-81
2023/05/24 04:54:23;;;;;;;11.77;4.00;;;13.60;99.90;;;;;;4968930;28;20456;-80
2023/05/24 04:56:49;;;;;;;19.48;5.28;;;13.70;99.90;;;;;;4964001;28;20036;-81
2023/05/24 04:59:14;;;;;;;24.70;4.57;;;13.70;99.90;;;;;;4980419;28;20046;-81
2023/05/24 05:01:40;;;;;;;17.92;4.72;;;13.60;99.90;;;;;;4999592;28;20063;-83
2023/05/24 05:04:07;;;;;;;17.20;4.05;;;13.70;99.90;;;;;;4979268;28;20391;-82
2023/05/24 05:06:37;;;;;;;20.33;5.22;;;13.80;99.90;;;;;;4969346;28;20043;-83
2023/05/24 05:09:04;;;;;;;20.67;5.40;;;13.70;99.90;;;;;;4944142;28;20054;-85
2023/05/24 05:11:30;;;;;;;14.57;4.75;;;14.00;99.90;;;;;;4960984;28;20178;-80
2023/05/24 05:13:56;;;;;;;15.60;5.18;;;14.10;99.90;;;;;;4987319;28;20740;-80
2023/05/24 05:16:21;;;;;;;18.50;5.15;;;14.20;99.90;;;;;;4945969;28;20043;-81
2023/05/24 05:18:47;;;;;;;14.55;4.82;;;14.30;99.90;;;;;;4934670;28;20126;-82
2023/05/24 05:21:13;;;;;;;13.52;4.38;;;14.30;99.90;;;;;;4944350;28;20414;-86
2023/05/24 05:23:39;;;;;;;17.13;4.38;;;14.40;99.90;;;;;;4964556;28;20102;-83
2023/05/24 05:26:06;;;;;;;16.10;4.65;;;14.50;99.90;;;;;;4979333;28;20074;-82
2023/05/24 05:28:32;;;;;;;13.32;4.28;;;14.60;99.90;;;;;;4947474;28;20468;-82
2023/05/24 05:30:58;;;;;;;19.58;4.50;;;14.60;99.90;;;;;;4934174;28;20035;-80
2023/05/24 05:33:24;;;;;;;15.77;4.32;;;14.70;99.90;;;;;;5028436;28;20043;-82
2023/05/24 05:35:49;;;;;;;14.75;4.07;;;14.80;99.90;;;;;;4960167;28;20057;-83
2023/05/24 05:38:15;;;;;;;19.17;3.88;;;14.70;99.90;;;;;;4993460;28;20470;-81
2023/05/24 05:40:41;;;;;;;15.98;3.75;;;14.70;99.90;;;;;;4943617;28;20187;-81
2023/05/24 05:43:08;;;;;;;12.18;4.45;;;14.60;99.90;;;;;;4946028;28;20035;-83
2023/05/24 05:45:34;;;;;;;20.65;4.15;;;14.80;99.90;;;;;;4944397;28;20050;-79
2023/05/24 05:48:00;;;;;;;16.20;3.78;;;14.80;99.90;;;;;;4927619;28;20042;-79
2023/05/24 05:50:25;;;;;;;13.52;3.72;;;14.90;99.90;;;;;;4930699;28;20050;-83
2023/05/24 05:52:51;;;;;;;12.23;3.45;;;14.80;99.90;;;;;;4975958;28;20046;-82
2023/05/24 05:55:17;;;;;;;14.48;3.63;;;14.80;99.90;;;;;;5023438;28;20081;-81
2023/05/24 05:57:43;;;;;;;10.20;3.60;;;15.10;99.90;;;;;;4947521;28;20123;-80
2023/05/24 06:00:09;;;;;;;17.10;4.70;;;15.10;99.90;;;;;;4938760;28;20690;-82
2023/05/24 06:02:35;;;;;;;13.75;3.60;;;15.10;99.90;;;;;;4973276;28;20064;-80
2023/05/24 06:05:01;;;;;;;13.63;3.85;;;15.20;99.90;;;;;;4956631;28;20527;-82
2023/05/24 06:07:27;;;;;;;12.95;3.47;;;15.10;99.90;;;;;;4972018;28;20519;-81
2023/05/24 06:09:53;;;;;;;15.77;4.13;;;15.10;99.90;;;;;;4946280;28;20059;-83
2023/05/24 06:12:19;;;;;;;14.80;4.22;;;15.30;99.90;;;;;;4917243;28;20101;-86
2023/05/24 06:14:47;;;;;;;12.82;3.38;;;15.40;99.90;;;;;;4969411;28;20047;-79
2023/05/24 06:17:12;;;;;;;11.88;3.45;;;15.30;99.90;;;;;;4952390;28;20443;-81
2023/05/24 06:19:38;;;;;;;13.02;3.70;;;15.40;99.90;;;;;;4946401;28;20032;-79
2023/05/24 06:22:04;;;;;;;12.95;3.35;;;15.10;99.90;;;;;;4935341;28;20040;-84
2023/05/24 06:24:33;;;;;;;9.25;3.13;;;15.00;99.90;;;;;;4961308;28;20058;-84
2023/05/24 06:26:59;;;;;;;13.48;4.00;;;15.00;99.90;;;;;;4942562;28;20077;-81
2023/05/24 06:29:25;;;;;;;9.65;3.30;;;15.10;99.90;;;;;;4948658;28;20051;-83
2023/05/24 06:31:51;;;;;;;15.98;3.97;;;15.10;99.90;;;;;;4987813;28;20475;-80
2023/05/24 06:34:17;;;;;;;11.23;3.83;;;15.10;99.90;;;;;;4948178;28;20057;-83
2023/05/24 06:36:46;;;;;;;11.98;3.08;;;15.20;99.90;;;;;;4976747;28;20038;-82
2023/05/24 06:39:12;;;;;;;9.57;3.17;;;15.50;99.90;;;;;;4950416;28;20058;-82
2023/05/24 06:41:39;;;;;;;10.13;3.20;;;15.30;99.90;;;;;;4937243;28;20050;-82
2023/05/24 06:44:05;;;;;;;12.90;3.75;;;15.50;99.90;;;;;;4947443;28;20046;-83
2023/05/24 06:46:30;;;;;;;13.38;3.20;;;15.50;99.90;;;;;;4944430;28;20055;-82
2023/05/24 06:48:56;;;;;;;12.90;3.38;;;15.40;99.90;;;;;;4955093;28;20039;-81
2023/05/24 06:51:22;;;;;;;9.55;3.10;;;15.70;99.90;;;;;;4959270;28;20038;-83
2023/05/24 06:53:49;;;;;;;9.57;2.92;;;15.80;99.90;;;;;;4944929;28;20093;-80
2023/05/24 06:56:20;;;;;;;10.43;3.40;;;15.90;99.90;;;;;;4959045;28;20038;-85
2023/05/24 06:58:47;;;;;;;8.48;3.25;;;16.40;99.90;;;;;;4937550;28;20135;-82
2023/05/24 07:01:14;;;;;;;10.93;3.30;;;16.60;99.90;;;;;;4933674;28;20116;-81
2023/05/24 07:03:40;;;;;;;8.88;3.00;;;16.70;99.90;;;;;;4944047;28;20039;-80
2023/05/24 07:06:08;;;;;;;8.65;2.70;;;17.00;99.90;;;;;;4916803;28;20088;-81
2023/05/24 07:08:35;;;;;;;10.05;3.08;;;17.00;99.90;;;;;;4946755;28;20051;-79
2023/05/24 07:11:01;;;;;;;10.60;2.67;;;17.20;99.90;;;;;;4946213;28;20039;-79
2023/05/24 07:13:27;;;;;;;11.45;2.97;;;17.20;99.90;;;;;;4937500;28;20047;-79
2023/05/24 07:15:52;;;;;;;7.63;3.00;;;16.80;99.90;;;;;;4971279;28;20524;-77
2023/05/24 07:18:18;;;;;;;11.13;3.13;;;16.60;99.90;;;;;;4942414;28;20799;-80
2023/05/24 07:20:44;;;;;;;12.25;3.15;;;17.00;99.90;;;;;;4958136;28;20030;-80
2023/05/24 07:23:11;;;;;;;13.10;3.28;;;17.20;99.90;;;;;;4941405;28;20138;-81
2023/05/24 07:25:36;;;;;;;9.57;2.90;;;17.30;99.90;;;;;;4947561;28;20043;-77
2023/05/24 07:28:02;;;;;;;11.20;3.05;;;17.10;99.90;;;;;;4954666;28;20039;-80
2023/05/24 07:30:28;;;;;;;11.23;3.42;;;16.40;99.90;;;;;;4960142;28;20035;-84
2023/05/24 07:32:53;;;;;;;8.70;3.10;;;16.40;99.90;;;;;;4962626;28;20050;-84
2023/05/24 07:35:20;;;;;;;11.50;3.55;;;16.60;99.90;;;;;;4934913;28;20376;-80
2023/05/24 07:37:46;;;;;;;10.65;3.40;;;16.30;99.90;;;;;;4944621;28;20043;-81
2023/05/24 07:40:13;;;;;;;14.50;3.25;;;16.00;99.90;;;;;;4932010;28;20043;-80
2023/05/24 07:42:38;;;;;;;13.55;3.72;;;16.20;99.90;;;;;;4951486;28;20089;-79
2023/05/24 07:45:09;;;;;;;12.93;3.33;;;16.60;99.90;;;;;;4928570;28;20101;-79
2023/05/24 07:47:36;;;;;;;7.72;2.97;;;16.70;99.90;;;;;;4934347;28;20471;-81
2023/05/24 07:50:02;;;;;;;7.88;3.58;;;16.70;99.90;;;;;;4933392;28;20043;-84
2023/05/24 07:52:28;;;;;;;13.02;4.00;;;16.50;99.90;;;;;;4957397;28;20051;-85
2023/05/24 07:54:54;;;;;;;5.50;2.72;;;16.40;99.90;;;;;;4946103;28;20478;-81
2023/05/24 07:57:20;;;;;;;12.57;3.25;;;16.50;99.90;;;;;;4924955;28;20137;-81
2023/05/24 07:59:46;;;;;;;11.35;3.08;;;16.50;99.90;;;;;;4964177;28;20103;-83
2023/05/24 08:02:12;;;;;;;6.13;2.40;;;16.20;99.90;;;;;;4928849;28;20039;-78
2023/05/24 08:04:39;;;;;;;7.68;2.95;;;15.90;99.90;;;;;;4928089;28;20047;-80
2023/05/24 08:07:05;;;;;;;9.85;3.20;;;16.00;99.90;;;;;;4961292;28;20069;-79
2023/05/24 08:09:35;;;;;;;10.57;3.17;;;15.90;99.90;;;;;;4998195;28;20034;-79
2023/05/24 08:12:05;;;;;;;14.05;3.97;;;15.80;99.90;;;;;;4966623;28;20692;-83
2023/05/24 08:14:31;;;;;;;8.75;3.33;;;16.20;99.90;;;;;;4976298;28;20065;-80
2023/05/24 08:16:59;;;;;;;11.85;3.33;;;16.20;99.90;;;;;;4956693;28;20620;-81
2023/05/24 08:19:26;;;;;;;8.88;3.60;;;16.40;99.90;;;;;;4983478;28;20053;-80
2023/05/24 08:21:56;;;;;;;7.78;2.40;;;17.10;99.90;;;;;;4965596;28;20091;-82
2023/05/24 08:24:22;;;;;;;8.90;3.10;;;16.80;99.90;;;;;;4991441;28;20049;-80
2023/05/24 08:26:50;;;;;;;9.80;3.35;;;16.60;99.90;;;;;;5017316;28;20099;-79
2023/05/24 08:29:16;;;;;;;5.90;2.70;;;16.60;99.90;;;;;;4959461;28;20370;-79
2023/05/24 08:31:42;;;;;;;9.27;2.83;;;17.00;99.90;;;;;;4958168;28;20051;-80
2023/05/24 08:34:07;;;;;;;8.45;2.47;;;17.20;99.90;;;;;;4981914;28;20080;-79
2023/05/24 08:36:33;;;;;;;7.60;2.65;;;17.40;99.90;;;;;;4997348;28;20401;-81
2023/05/24 08:38:59;;;;;;;7.25;2.42;;;17.60;99.90;;;;;;4935090;28;20066;-81
2023/05/24 08:41:26;;;;;;;7.63;3.03;;;18.00;99.90;;;;;;4990847;28;20034;-79
2023/05/24 08:43:54;;;;;;;9.15;3.33;;;18.10;99.90;;;;;;4976002;28;20103;-78
2023/05/24 08:46:20;;;;;;;7.15;2.65;;;17.60;99.90;;;;;;4976816;28;20030;-78
2023/05/24 08:48:47;;;;;;;7.30;2.30;;;17.60;99.90;;;;;;4979720;28;20042;-77
2023/05/24 08:51:16;;;;;;;6.40;2.70;;;17.70;99.90;;;;;;4995789;28;20121;-76
2023/05/24 08:53:47;;;;;;;8.35;3.28;;;17.60;99.90;;;;;;4985580;28;20046;-78
2023/05/24 08:56:16;;;;;;;10.13;3.17;;;17.40;99.90;;;;;;5001996;28;20120;-77
2023/05/24 08:58:47;;;;;;;6.75;2.70;;;17.10;99.90;;;;;;4967398;28;20060;-82
2023/05/24 09:01:15;;;;;;;8.93;2.65;;;17.10;99.90;;;;;;4965713;28;20128;-78
2023/05/24 09:03:45;;;;;;;8.60;2.45;;;17.30;99.90;;;;;;4981600;28;20684;-78
2023/05/24 09:06:15;;;;;;;10.32;2.90;;;17.40;99.90;;;;;;4967051;28;20062;-80
2023/05/24 09:08:42;;;;;;;9.07;3.15;;;17.30;99.90;;;;;;4970115;28;20051;-78
2023/05/24 09:11:08;;;;;;;7.28;3.13;;;17.40;99.90;;;;;;4981828;28;20045;-81
2023/05/24 09:13:34;;;;;;;8.10;2.90;;;17.20;99.90;;;;;;4979032;28;20072;-79
2023/05/24 09:16:00;;;;;;;12.90;3.22;;;17.10;99.90;;;;;;4963943;28;20130;-78
2023/05/24 09:18:26;;;;;;;9.57;3.00;;;17.30;99.90;;;;;;4985548;28;20034;-79
2023/05/24 09:20:52;;;;;;;9.05;3.30;;;17.30;99.90;;;;;;4976654;28;20069;-81
2023/05/24 09:23:18;;;;;;;6.75;2.90;;;17.40;99.90;;;;;;4968725;28;20077;-82
2023/05/24 09:25:44;;;;;;;10.65;2.95;;;17.40;99.90;;;;;;4983165;28;20038;-79
2023/05/24 09:28:13;;;;;;;9.95;3.08;;;17.40;99.90;;;;;;4996269;28;20090;-80
2023/05/24 09:30:43;;;;;;;8.98;3.55;;;17.50;99.90;;;;;;5014701;28;20038;-82
2023/05/24 09:33:09;;;;;;;9.77;2.95;;;17.60;99.90;;;;;;4975052;28;20035;-79
2023/05/24 09:35:35;;;;;;;11.35;3.38;;;17.90;99.90;;;;;;4946605;28;20045;-79
2023/05/24 09:38:02;;;;;;;10.85;3.45;;;18.30;99.90;;;;;;4989858;28;20057;-79
2023/05/24 09:40:28;;;;;;;8.25;3.40;;;18.20;99.90;;;;;;5004012;28;20042;-81
2023/05/24 09:43:08;;;;;;;7.38;2.78;;;17.90;99.90;;;;;;4967568;28;20046;-77
2023/05/24 09:45:48;;;;;;;9.85;2.75;;;17.50;99.90;;;;;;4986325;28;20040;-80
2023/05/24 09:48:16;;;;;;;7.88;2.90;;;17.50;99.90;;;;;;4997543;28;20057;-80
2023/05/24 09:50:46;;;;;;;7.28;2.65;;;17.30;99.90;;;;;;4988087;28;20050;-78
2023/05/24 09:53:12;;;;;;;7.40;2.55;;;17.70;99.90;;;;;;5021181;28;20077;-83
2023/05/24 09:55:37;;;;;;;7.68;2.67;;;17.60;99.90;;;;;;4988511;28;20696;-79
2023/05/24 09:58:07;;;;;;;8.32;2.90;;;17.50;99.90;;;;;;4984532;28;20100;-80
2023/05/24 10:00:42;;;;;;;7.00;2.30;;;17.50;99.90;;;;;;4994968;28;20046;-79
2023/05/24 10:03:10;;;;;;;5.88;2.35;;;17.70;99.90;;;;;;4966827;28;20678;-81
2023/05/24 10:05:37;;;;;;;7.38;2.50;;;18.30;99.90;;;;;;5056803;28;20045;-78
2023/05/24 10:08:04;;;;;;;7.55;3.30;;;18.60;99.90;;;;;;4972808;28;20062;-82
2023/05/24 10:10:32;;;;;;;7.65;2.55;;;18.40;99.90;;;;;;5003816;28;20056;-84
2023/05/24 10:13:00;;;;;;;8.55;3.03;;;18.00;99.90;;;;;;4967377;28;20037;-83
2023/05/24 10:15:26;;;;;;;6.43;2.53;;;18.30;99.90;;;;;;4954327;28;20100;-80
2023/05/24 10:17:56;;;;;;;6.55;2.33;;;18.60;99.90;;;;;;4986516;28;20038;-80
2023/05/24 10:20:23;;;;;;;7.05;2.35;;;18.40;99.90;;;;;;4972261;28;20038;-80
2023/05/24 10:22:58;;;;;;;5.70;2.35;;;18.90;99.90;;;;;;4971019;28;20112;-78
2023/05/24 10:25:30;;;;;;;8.20;2.83;;;19.30;99.90;;;;;;4997209;28;20045;-78
2023/05/24 10:28:00;;;;;;;6.13;2.53;;;18.50;99.90;;;;;;4987996;28;20160;-77
2023/05/24 10:30:31;;;;;;;5.82;2.45;;;18.10;99.90;;;;;;4969318;28;20034;-79
2023/05/24 10:33:00;;;;;;;7.88;2.60;;;17.80;99.90;;;;;;5012480;28;20080;-82
2023/05/24 10:35:27;;;;;;;9.30;2.88;;;17.70;99.90;;;;;;4965669;28;20463;-81
2023/05/24 10:37:53;;;;;;;7.63;2.40;;;17.60;99.90;;;;;;4971785;28;20042;-79
2023/05/24 10:40:24;;;;;;;10.32;2.92;;;17.80;99.90;;;;;;4983913;28;20038;-79
2023/05/24 10:42:51;;;;;;;10.07;3.30;;;17.50;99.90;;;;;;4987389;28;20038;-79
2023/05/24 10:45:36;;;;;;;9.70;3.00;;;17.30;99.90;;;;;;4972767;28;20040;-80
2023/05/24 10:48:12;;;;;;;8.15;2.78;;;17.20;99.90;;;;;;4972723;28;20077;-80
2023/05/24 10:50:38;;;;;;;6.93;2.35;;;17.20;99.90;;;;;;4987440;28;20073;-80
2023/05/24 10:53:15;;;;;;;8.77;2.72;;;17.10;99.90;;;;;;4971596;28;20057;-79
2023/05/24 10:56:02;;;;;;;12.90;2.88;;;17.20;99.90;;;;;;4988034;28;20387;-81
2023/05/24 10:58:50;;;;;;;8.82;2.65;;;17.40;99.90;;;;;;4988920;28;20069;-81
2023/05/24 11:01:30;;;;;;;8.93;2.53;;;17.50;99.90;;;;;;4972618;28;20073;-81
2023/05/24 11:04:09;;;;;;;6.97;2.70;;;17.40;99.90;;;;;;4970569;28;20046;-82
2023/05/24 11:06:54;;;;;;;9.73;3.75;;;17.30;99.90;;;;;;4989249;28;20042;-81
2023/05/24 11:09:21;;;;;;;8.23;2.90;;;17.40;99.90;;;;;;4995879;28;20072;-84
2023/05/24 11:11:53;;;;;;;9.38;3.13;;;17.30;99.90;;;;;;4952717;28;20038;-79
2023/05/24 11:14:32;;;;;;;7.93;3.05;;;17.20;99.90;;;;;;4964323;28;20183;-77
2023/05/24 11:17:01;;;;;;;13.45;3.95;;;17.10;99.90;;;;;;5005726;28;20026;-80
2023/05/24 11:19:33;;;;;;;7.80;3.03;;;17.20;99.90;;;;;;4999625;28;20053;-82
2023/05/24 11:22:00;;;;;;;12.45;3.53;;;17.00;99.90;;;;;;4983704;28;20880;-80
2023/05/24 11:24:26;;;;;;;10.77;4.13;;;17.10;99.90;;;;;;4998752;28;20124;-81
2023/05/24 11:26:52;;;;;;;8.75;3.38;;;17.10;99.90;;;;;;4985914;28;20077;-81
2023/05/24 11:29:21;;;;;;;11.27;3.03;;;17.20;99.90;;;;;;4948821;28;20069;-79
2023/05/24 11:31:52;;;;;;;10.23;3.50;;;17.10;99.90;;;;;;4974142;28;20125;-80
2023/05/24 11:34:20;;;;;;;12.07;3.40;;;17.20;99.90;;;;;;4987872;28;20133;-81
2023/05/24 11:36:47;;;;;;;11.55;3.35;;;17.30;99.90;;;;;;4973410;28;20087;-82
2023/05/24 11:39:16;;;;;;;5.85;2.70;;;17.20;99.90;;;;;;4957405;28;21060;-82
2023/05/24 11:41:43;;;;;;;8.43;3.30;;;17.10;99.90;;;;;;4953979;28;20038;-78
2023/05/24 11:44:10;;;;;;;9.05;3.00;;;17.00;99.90;;;;;;4982303;28;20046;-79
2023/05/24 11:46:38;;;;;;;9.82;3.25;;;17.00;99.90;;;;;;4989141;28;20048;-80
2023/05/24 11:49:04;;;;;;;10.77;3.53;;;17.10;99.90;;;;;;5010662;28;20042;-79
2023/05/24 11:51:34;;;;;;;9.05;3.15;;;17.20;99.90;;;;;;4989067;28;20107;-79
2023/05/24 11:54:00;;;;;;;6.80;2.72;;;17.30;99.90;;;;;;4954744;28;20050;-78
2023/05/24 11:56:29;;;;;;;12.18;3.33;;;17.70;99.90;;;;;;4996804;28;20390;-78
2023/05/24 11:59:16;;;;;;;7.13;2.72;;;17.50;99.90;;;;;;4984745;28;20034;-83
2023/05/24 12:01:43;;;;;;;8.93;3.00;;;17.50;99.90;;;;;;5020944;28;20073;-79
2023/05/24 12:04:15;;;;;;;9.73;2.90;;;17.50;99.90;;;;;;4969840;28;20038;-81
2023/05/24 12:06:42;;;;;;;9.13;2.85;;;17.70;99.90;;;;;;4965474;28;20068;-81
2023/05/24 12:09:12;;;;;;;6.90;2.80;;;17.80;99.90;;;;;;4987133;28;20555;-82
2023/05/24 12:11:45;;;;;;;8.05;2.67;;;18.00;99.90;;;;;;4956382;28;20898;-84
2023/05/24 12:14:13;;;;;;;8.98;2.55;;;18.00;99.90;;;;;;4956267;28;20096;-84
2023/05/24 12:16:41;;;;;;;7.35;2.78;;;18.10;99.90;;;;;;4955261;28;20040;-81
2023/05/24 12:19:07;;;;;;;6.70;2.97;;;18.00;99.90;;;;;;4982836;28;21008;-82
2023/05/24 12:21:33;;;;;;;7.70;2.40;;;18.00;99.90;;;;;;4998131;28;20034;-81
2023/05/24 12:24:13;;;;;;;10.15;2.55;;;18.00;99.90;;;;;;4989453;28;20069;-80
2023/05/24 12:26:44;;;;;;;9.20;2.92;;;18.10;99.90;;;;;;4974905;28;20038;-82
2023/05/24 12:29:11;;;;;;;9.30;2.60;;;18.10;99.90;;;;;;4992063;28;20034;-81
2023/05/24 12:31:46;;;;;;;9.77;3.22;;;18.60;99.90;;;;;;4968403;28;20125;-82
2023/05/24 12:34:19;;;;;;;10.60;2.90;;;18.20;99.90;;;;;;4960135;28;20227;-84
2023/05/24 12:36:54;;;;;;;9.15;2.88;;;17.90;99.90;;;;;;4977691;28;20048;-84
2023/05/24 12:39:30;;;;;;;8.25;3.03;;;18.40;99.90;;;;;;5013761;28;20125;-83
2023/05/24 12:41:57;;;;;;;6.95;2.70;;;17.90;99.90;;;;;;4991435;28;20034;-79
2023/05/24 12:44:31;;;;;;;9.63;2.65;;;17.80;99.90;;;;;;4972552;28;20045;-83